createdAt,value
2019-03-27T11:35:51.687Z,29.89
2019-03-27T11:38:26.030Z,30.05
2019-03-27T11:41:00.575Z,29.83
2019-03-27T11:43:35.329Z,30.00
2019-03-27T11:46:09.918Z,30.10
2019-03-27T11:48:44.645Z,30.15
2019-03-27T11:51:19.432Z,30.17
2019-03-27T11:53:55.083Z,30.17
2019-03-27T11:56:29.891Z,30.18
2019-03-27T11:59:04.841Z,30.15
2019-03-27T12:01:43.502Z,30.17
2019-03-27T12:04:16.433Z,30.15
2019-03-27T12:06:51.096Z,30.12
2019-03-27T12:09:25.633Z,30.10
2019-03-27T12:12:00.221Z,30.06
2019-03-27T12:14:34.850Z,30.02
2019-03-27T12:17:09.352Z,30.05
2019-03-27T12:19:43.955Z,30.06
2019-03-27T12:22:19.723Z,30.19
2019-03-27T12:24:54.288Z,30.05
2019-03-27T12:27:29.676Z,30.06
2019-03-27T12:30:04.297Z,30.43
2019-03-27T12:32:38.930Z,30.64
2019-03-27T12:35:13.828Z,30.36
2019-03-27T12:37:48.549Z,30.30
2019-03-27T12:40:23.480Z,30.29
2019-03-27T12:42:58.046Z,30.30
2019-03-27T12:45:32.788Z,30.31
2019-03-27T12:48:08.425Z,30.25
2019-03-27T12:50:44.562Z,30.29
2019-03-27T12:53:19.076Z,30.26
2019-03-27T12:55:55.354Z,30.26
2019-03-27T12:58:29.998Z,30.25
2019-03-27T13:01:04.762Z,30.24
2019-03-27T13:03:39.369Z,30.22
2019-03-27T13:06:13.919Z,30.21
2019-03-27T13:08:49.641Z,30.17
2019-03-27T13:11:24.269Z,30.13
2019-03-27T13:13:58.958Z,30.15
2019-03-27T13:16:33.718Z,30.13
2019-03-27T13:19:08.369Z,30.20
2019-03-27T13:21:42.917Z,30.11
2019-03-27T13:24:17.495Z,30.13
2019-03-27T13:26:52.738Z,30.15
2019-03-27T13:29:27.304Z,30.24
2019-03-27T13:32:01.928Z,29.95
2019-03-27T13:34:36.572Z,29.88
2019-03-27T13:37:11.022Z,29.99
2019-03-27T13:39:45.456Z,30.05
2019-03-27T13:42:20.092Z,30.04
2019-03-27T13:44:54.700Z,30.07
2019-03-27T13:47:29.250Z,30.10
2019-03-27T13:50:03.830Z,30.21
2019-03-27T13:52:38.514Z,29.84
2019-03-27T13:55:13.250Z,29.89
2019-03-27T13:57:49.730Z,29.97
2019-03-27T14:00:24.364Z,30.06
2019-03-27T14:02:58.906Z,30.10
2019-03-27T14:05:34.088Z,30.14
2019-03-27T14:08:09.242Z,30.12
2019-03-27T14:10:43.731Z,30.17
2019-03-27T14:13:18.365Z,30.14
2019-03-27T14:15:53.227Z,30.11
2019-03-27T14:18:27.896Z,30.11
2019-03-27T14:21:02.980Z,30.11
2019-03-27T14:23:37.518Z,30.25
2019-03-27T14:26:12.172Z,30.39
2019-03-27T14:28:46.689Z,30.41
2019-03-27T14:31:21.226Z,30.40
2019-03-27T14:33:55.873Z,30.40
2019-03-27T14:36:30.752Z,30.38
2019-03-27T14:39:06.812Z,30.34
2019-03-27T14:41:41.432Z,30.29
2019-03-27T14:44:15.899Z,30.30
2019-03-27T14:46:50.412Z,30.61
2019-03-27T14:49:26.383Z,30.45
2019-03-27T14:52:08.225Z,30.29
2019-03-27T14:54:37.186Z,30.35
2019-03-27T14:57:11.954Z,30.33
2019-03-27T14:59:46.605Z,30.46
2019-03-27T15:02:22.271Z,30.41
2019-03-27T15:04:56.869Z,30.30
2019-03-27T15:07:31.518Z,30.46
2019-03-27T15:10:07.101Z,30.27
2019-03-27T15:12:41.666Z,30.24
2019-03-27T15:15:16.276Z,30.19
2019-03-27T15:17:50.913Z,30.21
2019-03-27T15:20:25.612Z,30.34
2019-03-27T15:23:00.484Z,30.25
2019-03-27T15:25:35.270Z,30.19
2019-03-27T15:28:09.888Z,30.15
2019-03-27T15:30:44.463Z,30.15
2019-03-27T15:33:20.413Z,30.23
2019-03-27T15:35:55.020Z,30.19
2019-03-27T15:38:29.705Z,30.16
2019-03-27T15:41:04.203Z,30.37
2019-03-27T15:43:39.200Z,30.42
2019-03-27T15:46:13.905Z,30.20
2019-03-27T15:48:48.343Z,30.16
2019-03-27T15:51:23.209Z,30.07
2019-03-27T15:53:57.910Z,30.03
2019-03-27T15:56:34.408Z,30.01
2019-03-27T15:59:08.996Z,30.50
2019-03-27T16:01:43.800Z,30.20
2019-03-27T16:04:18.426Z,30.59
2019-03-27T16:06:53.330Z,30.67
2019-03-27T16:09:27.950Z,30.62
2019-03-27T16:12:03.616Z,30.09
2019-03-27T16:14:38.383Z,30.72
2019-03-27T16:17:14.053Z,30.36
2019-03-27T16:19:48.730Z,30.33
2019-03-27T16:22:23.769Z,30.74
2019-03-27T16:24:58.424Z,30.54
2019-03-27T16:27:33.652Z,30.76
2019-03-27T16:30:08.304Z,30.92
2019-03-27T16:32:43.731Z,30.93
2019-03-27T16:35:18.338Z,30.95
2019-03-27T16:37:53.365Z,31.24
2019-03-27T16:40:48.886Z,31.11
2019-03-27T16:43:23.910Z,30.96
2019-03-27T16:45:58.345Z,30.88
2019-03-27T16:48:33.600Z,31.11
2019-03-27T16:51:08.192Z,31.21
2019-03-27T16:53:42.842Z,31.69
2019-03-27T16:56:17.686Z,31.46
2019-03-27T16:58:52.643Z,31.37
2019-03-27T17:01:27.368Z,31.55
2019-03-27T17:04:02.006Z,31.39
2019-03-27T17:06:36.543Z,31.35
2019-03-27T17:09:11.359Z,31.57
2019-03-27T17:11:46.069Z,31.53
2019-03-27T17:14:20.654Z,31.47
2019-03-27T17:16:56.610Z,31.48
2019-03-27T17:19:31.263Z,31.49
2019-03-27T17:22:18.779Z,31.47
2019-03-27T17:24:42.056Z,31.44
2019-03-27T17:27:16.705Z,31.39
2019-03-27T17:29:51.357Z,31.38
2019-03-27T17:32:26.129Z,31.33
2019-03-27T17:35:00.694Z,31.28
2019-03-27T17:37:35.283Z,31.25
2019-03-27T17:40:10.522Z,31.46
2019-03-27T17:42:45.150Z,31.31
2019-03-27T17:45:19.899Z,31.24
2019-03-27T17:47:54.548Z,31.20
2019-03-27T17:50:30.605Z,31.15
2019-03-27T17:53:05.264Z,31.12
2019-03-27T17:55:39.854Z,31.09
2019-03-27T17:58:14.536Z,31.07
2019-03-27T18:00:55.669Z,31.06
2019-03-27T18:03:30.155Z,31.03
2019-03-27T18:06:04.772Z,30.98
2019-03-27T18:08:39.557Z,30.97
2019-03-27T18:11:14.227Z,30.94
2019-03-27T18:13:48.912Z,31.07
2019-03-27T18:16:24.613Z,31.41
2019-03-27T18:18:59.437Z,31.53
2019-03-27T18:21:34.198Z,31.90
2019-03-27T18:24:08.957Z,31.69
2019-03-27T18:26:43.841Z,31.38
2019-03-27T18:29:20.047Z,31.73
2019-03-27T18:31:54.698Z,31.36
2019-03-27T18:34:29.339Z,31.37
2019-03-27T18:37:03.915Z,31.38
2019-03-27T18:39:38.462Z,31.60
2019-03-27T18:42:14.934Z,31.23
2019-03-27T18:44:49.351Z,31.19
2019-03-27T18:47:24.002Z,31.16
2019-03-27T18:49:58.729Z,31.29
2019-03-27T18:52:33.634Z,31.49
2019-03-27T18:55:08.548Z,31.33
2019-03-27T18:57:43.318Z,31.33
2019-03-27T19:00:18.981Z,31.55
2019-03-27T19:02:53.786Z,31.40
2019-03-27T19:05:28.421Z,31.60
2019-03-27T19:08:02.959Z,31.52
2019-03-27T19:10:37.541Z,31.44
2019-03-27T19:13:12.310Z,31.43
2019-03-27T19:15:46.888Z,31.65
2019-03-27T19:18:21.645Z,32.29
2019-03-27T19:20:56.252Z,31.90
2019-03-27T19:23:30.768Z,31.96
2019-03-27T19:26:05.744Z,32.04
2019-03-27T19:28:40.306Z,31.54
2019-03-27T19:31:15.102Z,31.10
2019-03-27T19:33:49.672Z,31.03
2019-03-27T19:36:24.246Z,31.44
2019-03-27T19:38:59.473Z,31.59
2019-03-27T19:41:34.250Z,31.60
2019-03-27T19:44:09.275Z,31.86
2019-03-27T19:46:43.928Z,31.75
2019-03-27T19:49:18.673Z,31.63
2019-03-27T19:51:53.558Z,31.39
2019-03-27T19:54:28.282Z,31.39
2019-03-27T19:57:03.202Z,31.39
2019-03-27T19:59:37.665Z,31.61
2019-03-27T20:02:12.345Z,31.64
2019-03-27T20:04:47.180Z,31.52
2019-03-27T20:07:35.223Z,31.75
2019-03-27T20:09:58.040Z,31.83
2019-03-27T20:12:32.588Z,31.96
2019-03-27T20:15:12.268Z,31.81
2019-03-27T20:17:44.344Z,31.82
2019-03-27T20:20:18.979Z,31.85
2019-03-27T20:22:54.881Z,31.74
2019-03-27T20:25:29.384Z,31.86
2019-03-27T20:28:03.925Z,31.88
2019-03-27T20:30:38.578Z,31.79
2019-03-27T20:33:13.054Z,31.79
2019-03-27T20:35:47.803Z,31.72
2019-03-27T20:38:22.327Z,31.73
2019-03-27T20:40:56.749Z,31.80
2019-03-27T20:43:31.265Z,31.83
2019-03-27T20:46:05.757Z,31.79
2019-03-27T20:48:42.627Z,31.78
2019-03-27T20:51:16.705Z,31.81
2019-03-27T20:53:51.320Z,31.78
2019-03-27T20:56:26.090Z,31.78
2019-03-27T20:59:01.471Z,31.78
2019-03-27T21:01:36.419Z,31.76
2019-03-27T21:04:11.002Z,31.78
2019-03-27T21:06:45.707Z,31.82
2019-03-27T21:09:20.390Z,31.78
2019-03-27T21:11:56.178Z,31.76
2019-03-27T21:14:31.243Z,31.81
2019-03-27T21:17:05.755Z,31.87
2019-03-27T21:19:40.507Z,31.61
2019-03-27T21:22:16.754Z,31.76
2019-03-27T21:24:51.200Z,31.75
2019-03-27T21:27:25.881Z,31.95
2019-03-27T21:30:00.705Z,32.15
2019-03-27T21:32:35.162Z,32.35
2019-03-27T21:35:10.079Z,32.92
2019-03-27T21:37:44.826Z,33.11
2019-03-27T21:40:19.682Z,33.15
2019-03-27T21:42:54.176Z,33.07
2019-03-27T21:45:31.996Z,33.26
2019-03-27T21:48:05.027Z,33.00
2019-03-27T21:50:39.687Z,33.18
2019-03-27T21:53:14.231Z,33.25
2019-03-27T21:55:49.000Z,33.23
2019-03-27T21:58:23.742Z,33.34
2019-03-27T22:00:58.451Z,33.20
2019-03-27T22:03:33.087Z,33.27
2019-03-27T22:06:07.957Z,33.40
2019-03-27T22:08:43.067Z,33.48
2019-03-27T22:11:17.816Z,33.51
2019-03-27T22:13:52.378Z,33.58
2019-03-27T22:16:26.973Z,33.46
2019-03-27T22:19:01.459Z,33.68
2019-03-27T22:21:36.173Z,33.27
2019-03-27T22:24:10.706Z,33.24
2019-03-27T22:26:45.405Z,33.29
2019-03-27T22:29:19.946Z,33.22
2019-03-27T22:31:54.490Z,33.30
2019-03-27T22:34:29.067Z,33.24
2019-03-27T22:37:03.990Z,33.29
2019-03-27T22:39:38.601Z,32.98
2019-03-27T22:42:15.145Z,32.88
2019-03-27T22:44:49.718Z,33.01
2019-03-27T22:47:24.237Z,33.27
2019-03-27T22:49:58.836Z,33.27
2019-03-27T22:52:33.984Z,33.33
2019-03-27T22:55:08.577Z,33.31
2019-03-27T22:57:43.042Z,33.28
2019-03-27T23:00:18.101Z,33.23
2019-03-27T23:02:52.956Z,33.20
2019-03-27T23:05:30.056Z,33.19
2019-03-27T23:08:04.001Z,33.06
2019-03-27T23:10:38.756Z,33.06
2019-03-27T23:13:13.480Z,32.92
2019-03-27T23:15:48.209Z,32.89
2019-03-27T23:18:23.226Z,32.93
2019-03-27T23:20:57.790Z,32.89
2019-03-27T23:23:32.802Z,32.86
2019-03-27T23:26:07.357Z,32.80
2019-03-27T23:28:41.957Z,32.83
2019-03-27T23:31:16.594Z,32.83
2019-03-27T23:33:51.257Z,32.79
2019-03-27T23:36:25.864Z,32.73
2019-03-27T23:39:00.355Z,32.71
2019-03-27T23:41:34.879Z,32.72
2019-03-27T23:44:09.403Z,32.72
2019-03-27T23:46:43.917Z,32.72
2019-03-27T23:49:18.593Z,32.68
2019-03-27T23:51:53.028Z,32.68
2019-03-27T23:54:27.746Z,32.69
2019-03-27T23:57:02.632Z,32.63
2019-03-27T23:59:37.352Z,32.58
